createdAt,value
2023-04-15T00:01:26.976Z,100520.28
2023-04-15T00:03:56.931Z,100514.03
2023-04-15T00:06:27.994Z,100525.31
2023-04-15T00:08:57.268Z,100511.25
2023-04-15T00:11:26.555Z,100522.25
2023-04-15T00:13:57.376Z,100516.56
2023-04-15T00:16:26.755Z,100522.75
2023-04-15T00:18:58.592Z,100507.66
2023-04-15T00:21:29.138Z,100506.16
2023-04-15T00:23:59.528Z,100513.94
2023-04-15T00:26:28.727Z,100501.56
2023-04-15T00:29:00.641Z,100505.72
2023-04-15T00:31:32.112Z,100478.78
2023-04-15T00:34:01.363Z,100511.69
2023-04-15T00:36:34.009Z,100505.28
2023-04-15T00:39:03.744Z,100500.78
2023-04-15T00:41:34.229Z,100488.25
2023-04-15T00:44:05.739Z,100514.94
2023-04-15T00:46:37.670Z,100481.66
2023-04-15T00:49:07.713Z,100502.00
2023-04-15T00:51:37.284Z,100499.97
2023-04-15T00:54:06.815Z,100481.63
2023-04-15T00:56:38.111Z,100498.03
2023-04-15T00:59:09.173Z,100499.75
2023-04-15T01:01:38.979Z,100503.56
2023-04-15T01:04:08.486Z,100502.94
2023-04-15T01:06:37.389Z,100508.06
2023-04-15T01:09:06.725Z,100501.22
2023-04-15T01:11:36.519Z,100506.53
2023-04-15T01:14:06.250Z,100479.50
2023-04-15T01:16:39.752Z,100498.06
2023-04-15T01:19:10.133Z,100513.94
2023-04-15T01:21:39.755Z,100513.31
2023-04-15T01:24:11.875Z,100512.00
2023-04-15T01:26:44.465Z,100505.47
2023-04-15T01:29:14.430Z,100513.81
2023-04-15T01:31:52.247Z,100505.94
2023-04-15T01:34:40.031Z,100515.22
2023-04-15T01:37:30.056Z,100512.69
2023-04-15T01:39:59.924Z,100509.16
2023-04-15T01:42:30.403Z,100509.75
2023-04-15T01:45:00.985Z,100517.94
2023-04-15T01:47:31.371Z,100516.81
2023-04-15T01:50:01.818Z,100513.22
2023-04-15T01:52:32.675Z,100525.81
2023-04-15T01:55:03.109Z,100532.06
2023-04-15T01:57:35.011Z,100522.22
2023-04-15T02:00:07.825Z,100517.97
2023-04-15T02:02:44.922Z,100534.19
2023-04-15T02:05:16.168Z,100538.66
2023-04-15T02:07:50.806Z,100538.13
2023-04-15T02:10:21.422Z,100532.31
2023-04-15T02:12:53.001Z,100540.78
2023-04-15T02:15:23.386Z,100550.16
2023-04-15T02:17:55.475Z,100542.03
2023-04-15T02:20:25.938Z,100557.63
2023-04-15T02:22:56.938Z,100544.66
2023-04-15T02:25:27.389Z,100501.31
2023-04-15T02:28:00.566Z,100542.53
2023-04-15T02:30:30.867Z,100544.56
2023-04-15T02:33:05.461Z,100559.91
2023-04-15T02:35:39.319Z,100570.06
2023-04-15T02:38:12.623Z,100550.03
2023-04-15T02:40:42.979Z,100555.06
2023-04-15T02:43:18.391Z,100573.72
2023-04-15T02:45:50.253Z,100582.97
2023-04-15T02:48:23.264Z,100560.94
2023-04-15T02:50:53.610Z,100568.09
2023-04-15T02:53:24.068Z,100567.59
2023-04-15T02:55:54.286Z,100552.41
2023-04-15T02:58:27.849Z,100581.91
2023-04-15T03:00:58.074Z,100593.38
2023-04-15T03:03:28.845Z,100587.28
2023-04-15T03:05:59.086Z,100576.13
2023-04-15T03:08:31.198Z,100543.69
2023-04-15T03:11:03.088Z,100503.03
2023-04-15T03:13:34.636Z,100591.44
2023-04-15T03:16:12.664Z,100595.78
2023-04-15T03:18:43.033Z,100599.19
2023-04-15T03:21:14.138Z,100572.88
2023-04-15T03:23:44.432Z,100592.25
2023-04-15T03:26:25.823Z,100594.25
2023-04-15T03:28:58.791Z,100584.47
2023-04-15T03:31:29.466Z,100585.28
2023-04-15T03:33:59.781Z,100584.56
2023-04-15T03:36:31.410Z,100570.53
2023-04-15T03:39:02.666Z,100592.44
2023-04-15T03:41:33.775Z,100588.22
2023-04-15T03:44:05.472Z,100562.59
2023-04-15T03:46:35.784Z,100559.75
2023-04-15T03:49:07.742Z,100583.63
2023-04-15T03:51:38.144Z,100581.13
2023-04-15T03:54:09.276Z,100577.72
2023-04-15T03:56:42.751Z,100587.34
2023-04-15T03:59:14.430Z,100590.06
2023-04-15T04:01:44.868Z,100584.63
2023-04-15T04:04:17.224Z,100593.50
2023-04-15T04:06:50.103Z,100577.06
2023-04-15T04:09:20.728Z,100593.72
2023-04-15T04:11:51.349Z,100595.63
2023-04-15T04:14:29.321Z,100585.88
2023-04-15T04:16:59.649Z,100584.81
2023-04-15T04:19:30.089Z,100593.38
2023-04-15T04:22:01.472Z,100603.81
2023-04-15T04:24:32.338Z,100585.41
2023-04-15T04:27:03.134Z,100604.75
2023-04-15T04:29:35.092Z,100615.16
2023-04-15T04:32:06.099Z,100604.94
2023-04-15T04:34:36.647Z,100598.09
2023-04-15T04:37:07.677Z,100605.94
2023-04-15T04:39:41.847Z,100605.66
2023-04-15T04:42:12.494Z,100594.34
2023-04-15T04:44:44.436Z,100610.84
2023-04-15T04:47:14.951Z,100608.94
2023-04-15T04:49:45.883Z,100585.59
2023-04-15T04:52:16.583Z,100591.69
2023-04-15T04:54:47.442Z,100607.50
2023-04-15T04:57:20.875Z,100609.78
2023-04-15T04:59:52.647Z,100614.50
2023-04-15T05:02:23.187Z,100607.66
2023-04-15T05:04:54.573Z,100617.00
2023-04-15T05:07:27.618Z,100618.81
2023-04-15T05:10:27.168Z,100629.06
2023-04-15T05:13:00.014Z,100618.03
2023-04-15T05:15:33.866Z,100619.53
2023-04-15T05:18:13.871Z,100540.28
2023-04-15T05:20:46.385Z,100604.75
2023-04-15T05:23:16.610Z,100573.84
2023-04-15T05:30:11.078Z,100459.34
2023-04-15T05:34:15.937Z,100436.25
2023-04-15T05:36:46.479Z,100630.19
2023-04-15T05:39:17.271Z,100633.69
2023-04-15T05:41:51.696Z,100635.88
2023-04-15T05:44:21.882Z,100636.41
2023-04-15T05:46:52.798Z,100626.94
2023-04-15T05:49:24.527Z,100629.75
2023-04-15T05:51:54.743Z,100612.50
2023-04-15T05:54:26.776Z,100632.09
2023-04-15T05:56:58.685Z,100607.97
2023-04-15T05:59:31.417Z,100642.44
2023-04-15T06:02:02.036Z,100632.25
2023-04-15T06:04:37.179Z,100628.84
2023-04-15T06:07:07.621Z,100634.34
2023-04-15T06:09:37.867Z,100638.34
2023-04-15T06:12:12.372Z,100640.81
2023-04-15T06:14:43.394Z,100617.16
2023-04-15T06:17:15.097Z,100639.03
2023-04-15T06:19:50.562Z,100644.94
2023-04-15T06:22:21.244Z,100649.81
2023-04-15T06:24:52.161Z,100646.50
2023-04-15T06:27:23.133Z,100636.69
2023-04-15T06:29:55.968Z,100643.06
2023-04-15T06:32:26.403Z,100652.31
2023-04-15T06:34:58.442Z,100653.72
2023-04-15T06:37:32.740Z,100658.63
2023-04-15T06:40:05.275Z,100662.09
2023-04-15T06:42:36.893Z,100630.66
2023-04-15T06:45:09.470Z,100657.97
2023-04-15T06:47:41.949Z,100640.16
2023-04-15T06:50:13.797Z,100660.50
2023-04-15T06:52:44.136Z,100668.88
2023-04-15T06:55:15.051Z,100658.69
2023-04-15T06:57:45.460Z,100662.88
2023-04-15T07:00:16.832Z,100669.78
2023-04-15T07:02:47.979Z,100659.56
2023-04-15T07:05:20.266Z,100674.41
2023-04-15T07:07:50.548Z,100671.81
2023-04-15T07:10:20.956Z,100668.31
2023-04-15T07:12:54.328Z,100656.38
2023-04-15T07:15:27.727Z,100631.09
2023-04-15T07:17:58.297Z,100667.91
2023-04-15T07:20:33.237Z,100685.16
2023-04-15T07:23:06.558Z,100682.19
2023-04-15T07:25:37.517Z,100676.44
2023-04-15T07:28:08.290Z,100677.84
2023-04-15T07:30:39.857Z,100669.84
2023-04-15T07:33:10.359Z,100661.44
2023-04-15T07:35:43.790Z,100647.31
2023-04-15T07:38:14.560Z,100664.19
2023-04-15T07:40:47.379Z,100636.38
2023-04-15T07:43:19.143Z,100673.28
2023-04-15T07:45:49.730Z,100657.59
2023-04-15T07:48:20.281Z,100678.19
2023-04-15T07:50:52.019Z,100677.63
2023-04-15T07:53:22.578Z,100670.63
2023-04-15T07:55:52.975Z,100662.34
2023-04-15T07:58:23.311Z,100688.78
2023-04-15T08:00:55.201Z,100688.63
2023-04-15T08:03:26.901Z,100685.97
2023-04-15T08:05:59.200Z,100698.78
2023-04-15T08:08:29.697Z,100701.53
2023-04-15T08:11:00.474Z,100680.38
2023-04-15T08:13:30.954Z,100672.44
2023-04-15T08:16:23.604Z,100681.31
2023-04-15T08:18:55.169Z,100660.91
2023-04-15T08:21:27.738Z,100661.56
2023-04-15T08:23:58.699Z,100690.75
2023-04-15T08:26:29.100Z,100693.47
2023-04-15T08:28:59.818Z,100690.69
2023-04-15T08:31:31.320Z,100681.97
2023-04-15T08:34:01.848Z,100689.91
2023-04-15T08:36:33.947Z,100692.28
2023-04-15T08:39:05.083Z,100693.50
2023-04-15T08:41:41.693Z,100645.72
2023-04-15T08:44:15.312Z,100692.13
2023-04-15T08:46:45.789Z,100691.59
2023-04-15T08:49:19.246Z,100670.63
2023-04-15T08:51:50.981Z,100650.47
2023-04-15T08:54:21.664Z,100692.34
2023-04-15T08:56:52.122Z,100688.44
2023-04-15T08:59:23.046Z,100682.06
2023-04-15T09:01:54.045Z,100695.19
2023-04-15T09:04:24.444Z,100688.34
2023-04-15T09:06:57.368Z,100688.00
2023-04-15T09:09:47.464Z,100683.41
2023-04-15T09:12:18.677Z,100686.97
2023-04-15T09:14:50.331Z,100696.94
2023-04-15T09:17:22.325Z,100693.75
2023-04-15T09:20:10.108Z,100704.91
2023-04-15T09:22:46.768Z,100697.38
2023-04-15T09:25:35.159Z,100701.97
2023-04-15T09:28:05.716Z,100691.13
2023-04-15T09:30:36.849Z,100684.53
2023-04-15T09:33:11.104Z,100701.44
2023-04-15T09:35:41.560Z,100705.03
2023-04-15T09:38:13.411Z,100698.88
2023-04-15T09:40:45.206Z,100687.47
2023-04-15T09:43:17.484Z,100692.41
2023-04-15T09:45:52.186Z,100705.56
2023-04-15T09:48:26.879Z,100702.72
2023-04-15T09:51:02.028Z,100700.41
2023-04-15T09:53:36.547Z,100695.50
2023-04-15T09:56:10.667Z,100697.44
2023-04-15T09:58:42.563Z,100695.72
2023-04-15T10:01:13.300Z,100692.19
2023-04-15T10:03:43.998Z,100699.44
2023-04-15T10:06:16.498Z,100708.53
2023-04-15T10:08:49.482Z,100689.53
2023-04-15T10:11:26.683Z,100712.03
2023-04-15T10:13:58.876Z,100728.81
2023-04-15T10:16:29.743Z,100718.19
2023-04-15T10:19:04.520Z,100729.25
2023-04-15T10:21:35.787Z,100714.25
2023-04-15T10:24:09.006Z,100706.28
2023-04-15T10:26:47.106Z,100721.94
2023-04-15T10:29:18.105Z,100727.44
2023-04-15T10:31:49.425Z,100730.28
2023-04-15T10:34:20.286Z,100665.13
2023-04-15T10:36:50.845Z,100727.44
2023-04-15T10:39:46.706Z,100729.91
2023-04-15T10:42:19.226Z,100718.75
2023-04-15T10:44:52.849Z,100728.47
2023-04-15T10:47:24.144Z,100725.44
2023-04-15T10:49:59.128Z,100727.81
2023-04-15T10:52:30.426Z,100704.56
2023-04-15T10:55:15.683Z,100723.16
2023-04-15T10:57:46.767Z,100740.25
2023-04-15T11:00:20.695Z,100723.16
2023-04-15T11:02:55.114Z,100734.94
2023-04-15T11:05:52.806Z,100730.34
2023-04-15T11:08:55.816Z,100712.91
2023-04-15T11:12:09.807Z,100717.09
2023-04-15T11:14:43.542Z,100728.97
2023-04-15T11:17:13.633Z,100731.06
2023-04-15T11:19:44.529Z,100726.41
2023-04-15T11:22:15.273Z,100726.50
2023-04-15T11:24:52.133Z,100719.72
2023-04-15T11:27:24.452Z,100688.53
2023-04-15T11:29:54.996Z,100737.53
2023-04-15T11:32:25.673Z,100718.00
2023-04-15T11:34:56.054Z,100736.94
2023-04-15T11:37:30.705Z,100722.56
2023-04-15T11:40:03.961Z,100728.38
2023-04-15T11:42:48.666Z,100732.94
2023-04-15T11:45:24.497Z,100717.66
2023-04-15T11:48:07.215Z,100718.25
2023-04-15T11:50:38.234Z,100704.13
2023-04-15T11:53:08.673Z,100728.44
2023-04-15T11:55:46.422Z,100708.19
2023-04-15T11:58:26.668Z,100703.47
2023-04-15T12:00:59.016Z,100723.16
2023-04-15T12:03:29.833Z,100707.38
2023-04-15T12:06:21.461Z,100716.09
2023-04-15T12:09:01.992Z,100715.78
2023-04-15T12:11:33.788Z,100695.53
2023-04-15T12:14:08.327Z,100666.75
2023-04-15T12:16:48.574Z,100723.91
2023-04-15T12:19:25.260Z,100714.56
2023-04-15T12:22:00.710Z,100705.66
2023-04-15T12:24:33.520Z,100673.94
2023-04-15T12:27:07.250Z,100702.81
2023-04-15T12:29:38.980Z,100701.97
2023-04-15T12:32:09.428Z,100709.00
2023-04-15T12:34:40.485Z,100677.00
2023-04-15T12:37:11.716Z,100696.25
2023-04-15T12:39:41.988Z,100689.50
2023-04-15T12:42:12.477Z,100675.97
2023-04-15T12:44:44.391Z,100686.00
2023-04-15T12:47:13.887Z,100667.94
2023-04-15T12:49:42.912Z,100665.53
2023-04-15T12:52:11.946Z,100670.38
2023-04-15T12:54:41.261Z,100675.50
2023-04-15T12:57:10.271Z,100668.88
2023-04-15T12:59:39.149Z,100677.59
2023-04-15T13:02:10.283Z,100671.78
2023-04-15T13:04:42.543Z,100690.50
2023-04-15T13:07:13.786Z,100615.97
2023-04-15T13:09:43.024Z,100674.28
2023-04-15T13:12:13.955Z,100679.66
2023-04-15T13:14:43.392Z,100685.69
2023-04-15T13:17:14.147Z,100689.44
2023-04-15T13:19:43.091Z,100681.47
2023-04-15T13:22:12.320Z,100694.13
2023-04-15T13:24:41.803Z,100682.84
2023-04-15T13:27:11.273Z,100665.59
2023-04-15T13:29:40.458Z,100668.88
2023-04-15T13:32:09.717Z,100689.19
2023-04-15T13:34:40.196Z,100681.31
2023-04-15T13:37:09.768Z,100675.25
2023-04-15T13:39:38.841Z,100679.38
2023-04-15T13:42:13.651Z,100671.53
2023-04-15T13:44:42.729Z,100670.97
2023-04-15T13:47:11.983Z,100658.63
2023-04-15T13:49:42.599Z,100678.66
2023-04-15T13:52:12.333Z,100649.78
2023-04-15T13:54:42.078Z,100701.03
2023-04-15T13:57:20.714Z,100693.06
2023-04-15T13:59:50.147Z,100690.47
2023-04-15T14:02:19.437Z,100692.19
2023-04-15T14:04:50.073Z,100691.94
2023-04-15T14:07:18.985Z,100685.03
2023-04-15T14:09:48.540Z,100688.03
2023-04-15T14:12:17.442Z,100690.81
2023-04-15T14:14:48.032Z,100667.19
2023-04-15T14:17:19.540Z,100689.38
2023-04-15T14:19:49.997Z,100677.41
2023-04-15T14:22:19.775Z,100695.72
2023-04-15T14:24:49.611Z,100675.31
2023-04-15T14:27:18.879Z,100693.56
2023-04-15T14:29:48.458Z,100703.56
2023-04-15T14:32:20.467Z,100678.66
2023-04-15T14:34:51.062Z,100712.91
2023-04-15T14:37:22.849Z,100721.16
2023-04-15T14:39:52.243Z,100728.19
2023-04-15T14:42:21.375Z,100720.91
2023-04-15T14:44:50.624Z,100698.88
2023-04-15T14:47:19.978Z,100725.25
2023-04-15T14:49:52.991Z,100713.47
2023-04-15T14:52:24.386Z,100735.88
2023-04-15T14:55:07.041Z,100712.44
2023-04-15T14:57:37.441Z,100714.72
2023-04-15T15:00:10.444Z,100720.91
2023-04-15T15:02:40.760Z,100718.53
2023-04-15T15:05:12.437Z,100745.53
2023-04-15T15:07:42.131Z,100741.56
2023-04-15T15:10:11.661Z,100705.50
2023-04-15T15:12:40.912Z,100726.56
2023-04-15T15:15:24.876Z,100739.00
2023-04-15T15:17:58.155Z,100694.50
2023-04-15T15:20:31.559Z,100738.72
2023-04-15T15:23:03.018Z,100703.63
2023-04-15T15:25:41.058Z,100734.75
2023-04-15T15:28:18.291Z,100734.16
2023-04-15T15:30:49.841Z,100732.47
2023-04-15T15:33:30.094Z,100702.84
2023-04-15T15:36:12.797Z,100721.47
2023-04-15T15:38:46.752Z,100527.00
2023-04-15T15:41:18.834Z,100722.41
2023-04-15T15:43:58.727Z,100666.13
2023-04-15T15:46:36.047Z,100576.56
2023-04-15T15:49:06.243Z,100667.50
2023-04-15T15:51:49.435Z,100727.31
2023-04-15T15:54:22.894Z,100722.56
2023-04-15T15:57:02.319Z,100734.16
2023-04-15T15:59:33.209Z,100726.59
2023-04-15T16:02:04.397Z,100698.31
2023-04-15T16:04:34.859Z,100727.81
2023-04-15T16:07:13.193Z,100735.31
2023-04-15T16:09:45.518Z,100731.53
2023-04-15T16:12:28.919Z,100689.69
2023-04-15T16:14:58.909Z,100676.81
2023-04-15T16:17:29.743Z,100685.88
2023-04-15T16:20:01.373Z,100726.88
2023-04-15T16:22:33.642Z,100676.47
2023-04-15T16:25:08.846Z,100713.94
2023-04-15T16:30:38.804Z,100698.81
2023-04-15T16:33:09.893Z,100721.63
2023-04-15T16:35:41.993Z,100723.03
2023-04-15T16:38:24.359Z,100753.50
2023-04-15T16:41:13.347Z,100753.53
2023-04-15T16:43:49.259Z,100753.81
2023-04-15T16:46:21.743Z,100743.88
2023-04-15T16:49:10.044Z,100735.59
2023-04-15T16:51:49.067Z,100563.25
2023-04-15T16:58:00.920Z,100652.00
2023-04-15T17:00:36.604Z,100722.09
2023-04-15T17:03:18.778Z,100761.31
2023-04-15T17:05:51.595Z,100772.78
2023-04-15T17:08:24.116Z,100781.19
2023-04-15T17:11:16.973Z,100760.25
2023-04-15T17:13:47.084Z,100778.53
2023-04-15T17:16:26.848Z,100767.97
2023-04-15T17:18:58.830Z,100815.38
2023-04-15T17:21:34.472Z,100822.00
2023-04-15T17:24:04.328Z,100802.16
2023-04-15T17:26:42.674Z,100826.97
2023-04-15T17:29:12.822Z,100818.31
2023-04-15T17:31:49.199Z,100795.69
2023-04-15T17:34:50.626Z,100826.00
2023-04-15T17:37:41.017Z,100841.25
2023-04-15T17:40:29.993Z,100855.75
2023-04-15T17:43:22.197Z,100876.16
2023-04-15T17:46:12.307Z,100828.03
2023-04-15T17:49:01.851Z,100879.22
2023-04-15T17:51:50.809Z,100889.41
2023-04-15T17:54:41.490Z,100889.34
2023-04-15T17:57:31.098Z,100891.47
2023-04-15T18:00:22.057Z,100895.34
2023-04-15T18:03:13.645Z,100883.25
2023-04-15T18:06:02.789Z,100835.91
2023-04-15T18:08:52.656Z,100884.00
2023-04-15T18:11:43.979Z,100874.78
2023-04-15T18:14:35.016Z,100865.66
2023-04-15T18:17:26.044Z,100860.09
2023-04-15T18:20:15.427Z,100862.78
2023-04-15T18:22:48.047Z,100826.34
2023-04-15T18:25:17.488Z,100847.91
2023-04-15T18:27:47.056Z,100850.41
2023-04-15T18:30:18.149Z,100852.19
2023-04-15T18:32:48.596Z,100832.50
2023-04-15T18:35:18.235Z,100847.50
2023-04-15T18:37:47.491Z,100851.22
2023-04-15T18:40:19.703Z,100841.50
2023-04-15T18:42:52.054Z,100835.53
2023-04-15T18:45:22.177Z,100844.81
2023-04-15T18:47:58.342Z,100813.91
2023-04-15T18:50:27.300Z,100836.97
2023-04-15T18:52:58.822Z,100817.75
2023-04-15T18:55:28.106Z,100805.03
2023-04-15T18:58:03.997Z,100839.78
2023-04-15T19:00:41.743Z,100826.69
2023-04-15T19:03:15.756Z,100817.63
2023-04-15T19:05:48.531Z,100855.09
2023-04-15T19:08:17.937Z,100848.88
2023-04-15T19:10:48.422Z,100867.91
2023-04-15T19:13:18.809Z,100870.91
2023-04-15T19:15:48.080Z,100870.69
2023-04-15T19:18:18.585Z,100868.31
2023-04-15T19:21:17.476Z,100868.63
2023-04-15T19:23:47.550Z,100870.16
2023-04-15T19:26:16.812Z,100869.13
2023-04-15T19:28:45.911Z,100831.06
2023-04-15T19:31:15.636Z,100869.28
2023-04-15T19:33:46.597Z,100858.09
2023-04-15T19:36:15.878Z,100841.34
2023-04-15T19:38:45.146Z,100839.00
2023-04-15T19:41:14.602Z,100837.03
2023-04-15T19:43:44.059Z,100858.53
2023-04-15T19:46:13.934Z,100830.38
2023-04-15T19:48:45.640Z,100846.31
2023-04-15T19:51:16.068Z,100839.84
2023-04-15T19:53:45.672Z,100862.63
2023-04-15T19:56:14.684Z,100867.16
2023-04-15T19:58:46.661Z,100870.91
2023-04-15T20:01:16.216Z,100864.34
2023-04-15T20:03:45.693Z,100874.78
2023-04-15T20:06:17.007Z,100867.78
2023-04-15T20:08:46.298Z,100878.13
2023-04-15T20:11:15.865Z,100861.09
2023-04-15T20:13:46.812Z,100866.66
2023-04-15T20:16:16.142Z,100876.94
2023-04-15T20:18:46.040Z,100880.44
2023-04-15T20:21:19.266Z,100874.88
2023-04-15T20:23:48.532Z,100852.28
2023-04-15T20:26:18.216Z,100863.66
2023-04-15T20:28:47.680Z,100874.19
2023-04-15T20:31:19.240Z,100849.72
2023-04-15T20:33:48.269Z,100863.38
2023-04-15T20:36:21.781Z,100874.34
2023-04-15T20:38:51.225Z,100865.19
2023-04-15T20:41:23.341Z,100870.69
2023-04-15T20:43:52.279Z,100875.81
2023-04-15T20:46:24.624Z,100875.13
2023-04-15T20:48:56.197Z,100880.38
2023-04-15T20:51:27.538Z,100882.66
2023-04-15T20:53:56.752Z,100876.16
2023-04-15T20:56:25.796Z,100876.44
2023-04-15T20:59:01.166Z,100877.72
2023-04-15T21:01:30.299Z,100866.03
2023-04-15T21:03:59.922Z,100860.94
2023-04-15T21:06:30.862Z,100863.22
2023-04-15T21:08:59.908Z,100858.28
2023-04-15T21:14:08.428Z,100842.88
2023-04-15T21:16:38.112Z,100863.00
2023-04-15T21:19:07.388Z,100878.13
2023-04-15T21:21:37.822Z,100832.34
2023-04-15T21:24:08.066Z,100856.50
2023-04-15T21:26:37.391Z,100853.06
2023-04-15T21:29:08.756Z,100878.56
2023-04-15T21:31:39.770Z,100842.59
2023-04-15T21:34:09.069Z,100881.13
2023-04-15T21:36:40.024Z,100877.00
2023-04-15T21:39:09.197Z,100887.97
2023-04-15T21:41:50.511Z,100853.75
2023-04-15T21:44:19.747Z,100879.25
2023-04-15T21:46:48.861Z,100894.47
2023-04-15T21:49:20.324Z,100891.06
2023-04-15T21:51:55.163Z,100890.91
2023-04-15T21:54:24.292Z,100894.84
2023-04-15T21:56:53.633Z,100844.16
2023-04-15T21:59:22.742Z,100896.38
2023-04-15T22:01:54.858Z,100902.88
2023-04-15T22:04:24.046Z,100899.78
2023-04-15T22:07:01.615Z,100856.66
2023-04-15T22:09:31.070Z,100908.59
2023-04-15T22:12:01.053Z,100902.00
2023-04-15T22:14:31.661Z,100893.44
2023-04-15T22:17:00.877Z,100884.84
2023-04-15T22:19:29.918Z,100891.41
2023-04-15T22:22:01.150Z,100901.28
2023-04-15T22:24:39.660Z,100894.13
2023-04-15T22:27:09.568Z,100903.22
2023-04-15T22:29:38.556Z,100910.94
2023-04-15T22:32:08.432Z,100898.09
2023-04-15T22:34:37.564Z,100882.97
2023-04-15T22:37:08.566Z,100907.16
2023-04-15T22:39:37.453Z,100893.63
2023-04-15T22:42:06.636Z,100881.47
2023-04-15T22:44:36.950Z,100898.09
2023-04-15T22:47:06.118Z,100887.97
2023-04-15T22:49:36.649Z,100898.25
2023-04-15T22:52:07.967Z,100904.75
2023-04-15T22:54:38.254Z,100888.31
2023-04-15T22:57:07.248Z,100908.34
2023-04-15T22:59:37.778Z,100905.94
2023-04-15T23:02:06.803Z,100903.38
2023-04-15T23:04:35.961Z,100914.34
2023-04-15T23:07:07.600Z,100899.28
2023-04-15T23:09:36.583Z,100914.34
2023-04-15T23:12:05.918Z,100916.72
2023-04-15T23:14:34.984Z,100919.31
2023-04-15T23:17:03.966Z,100916.13
2023-04-15T23:19:33.060Z,100902.59
2023-04-15T23:22:02.021Z,100922.03
2023-04-15T23:24:32.232Z,100913.38
2023-04-15T23:27:01.648Z,100912.09
2023-04-15T23:29:30.809Z,100917.41
2023-04-15T23:31:59.840Z,100897.97
2023-04-15T23:34:29.220Z,100917.41
2023-04-15T23:37:01.031Z,100914.84
2023-04-15T23:39:30.792Z,100912.81
2023-04-15T23:42:01.218Z,100921.69
2023-04-15T23:44:30.403Z,100906.63
2023-04-15T23:46:59.420Z,100923.69
2023-04-15T23:49:28.418Z,100929.19
2023-04-15T23:51:57.610Z,100927.06
2023-04-15T23:54:26.613Z,100930.19
2023-04-15T23:56:55.680Z,100928.53
2023-04-15T23:59:25.952Z,100934.53
